Time;durP1;ratioP1;P1;durP2;ratioP2;P2;SDS_P1;SDS_P2;PMS_P1;PMS_P2;Temp;Humidity;BMP_temperature;BMP_pressure;BME280_temperature;BME280_humidity;BME280_pressure;Samples;Min_cycle;Max_cycle;Signal;HPM_P1;HPM_P2
2022/08/22 00:00:24;;;;;;;3.33;1.20;;;19.50;99.90;;;;;;5082889;28;20676;-71
2022/08/22 00:03:12;;;;;;;3.53;1.13;;;19.70;99.90;;;;;;5083117;28;20190;-72
2022/08/22 00:05:58;;;;;;;3.87;1.20;;;20.40;99.90;;;;;;5077177;28;20219;-71
2022/08/22 00:08:54;;;;;;;4.20;1.53;;;20.70;99.90;;;;;;5086453;28;20229;-72
2022/08/22 00:11:47;;;;;;;1.50;0.60;;;20.50;99.90;;;;;;5071200;28;20176;-73
2022/08/22 00:14:30;;;;;;;4.10;0.90;;;20.40;99.90;;;;;;5073157;28;20185;-72
2022/08/22 00:17:23;;;;;;;2.33;0.80;;;20.00;99.90;;;;;;5072682;28;20289;-71
2022/08/22 00:20:18;;;;;;;2.50;0.80;;;19.90;99.90;;;;;;5072655;28;20187;-72
2022/08/22 00:23:23;;;;;;;1.40;0.93;;;20.50;99.90;;;;;;5079922;28;20185;-71
2022/08/22 00:26:14;;;;;;;2.97;1.00;;;20.70;99.90;;;;;;5084350;28;20239;-71
2022/08/22 00:29:01;;;;;;;2.57;1.20;;;20.80;99.90;;;;;;5074197;28;20213;-72
2022/08/22 00:31:34;;;;;;;4.87;1.00;;;20.60;99.90;;;;;;5072484;28;20184;-72
2022/08/22 00:34:06;;;;;;;2.80;0.80;;;20.50;99.90;;;;;;5082056;28;20286;-74
2022/08/22 00:36:39;;;;;;;1.80;0.80;;;20.80;99.90;;;;;;5090418;28;20207;-73
2022/08/22 00:39:35;;;;;;;3.83;0.90;;;21.10;99.90;;;;;;5092018;28;20183;-72
2022/08/22 00:42:23;;;;;;;3.27;1.13;;;21.00;99.90;;;;;;5092861;28;20557;-70
2022/08/22 00:45:03;;;;;;;3.20;0.60;;;20.80;99.90;;;;;;5073714;28;20214;-72
2022/08/22 00:47:52;;;;;;;4.47;1.00;;;21.00;99.90;;;;;;5072293;28;20659;-71
2022/08/22 00:50:52;;;;;;;1.97;0.60;;;21.20;99.90;;;;;;5088338;28;20184;-72
2022/08/22 00:53:47;;;;;;;1.27;0.80;;;21.00;99.40;;;;;;5077457;28;20256;-70
2022/08/22 00:56:41;;;;;;;2.00;0.87;;;21.30;99.90;;;;;;5078162;28;20214;-71
2022/08/22 00:59:14;;;;;;;1.87;0.70;;;22.40;99.90;;;;;;5092312;28;20187;-70
2022/08/22 01:02:09;;;;;;;4.63;0.90;;;22.70;99.90;;;;;;5080015;28;20206;-70
2022/08/22 01:05:02;;;;;;;5.50;1.13;;;22.60;96.40;;;;;;5069361;28;20674;-70
2022/08/22 01:07:46;;;;;;;6.03;0.80;;;22.20;98.60;;;;;;5092048;28;20665;-70
2022/08/22 01:10:36;;;;;;;4.80;1.10;;;22.20;99.90;;;;;;5091935;28;20741;-71
2022/08/22 01:13:09;;;;;;;2.23;1.10;;;21.90;99.90;;;;;;5026175;28;20192;-72
2022/08/22 01:15:38;;;;;;;2.87;0.90;;;21.50;99.90;;;;;;5071980;28;20248;-70
2022/08/22 01:18:36;;;;;;;3.87;0.90;;;21.30;99.90;;;;;;5071507;28;20234;-70
2022/08/22 01:21:25;;;;;;;3.23;0.97;;;21.80;99.90;;;;;;5071790;28;20186;-71
2022/08/22 01:28:03;;;;;;;2.40;0.93;;;22.10;99.90;;;;;;5061834;28;20333;-70
2022/08/22 01:30:36;;;;;;;4.50;0.87;;;22.80;99.90;;;;;;5090740;28;20647;-71
2022/08/22 01:33:24;;;;;;;2.43;0.70;;;23.10;99.90;;;;;;5078912;28;20183;-71
2022/08/22 01:36:15;;;;;;;1.00;0.70;;;23.40;99.90;;;;;;5091531;28;20301;-71
2022/08/22 01:39:08;;;;;;;2.33;0.60;;;23.30;95.80;;;;;;5091789;28;20562;-72
2022/08/22 01:42:07;;;;;;;1.37;0.80;;;23.90;99.60;;;;;;5091428;28;20183;-74
2022/08/22 01:45:02;;;;;;;3.77;0.87;;;24.00;81.90;;;;;;5077119;28;20193;-71
2022/08/22 01:47:35;;;;;;;3.73;1.00;;;24.40;75.70;;;;;;5071409;28;20180;-71
2022/08/22 01:50:35;;;;;;;2.93;0.70;;;24.50;79.70;;;;;;5071310;28;20189;-71
2022/08/22 01:53:05;;;;;;;4.67;1.00;;;23.90;84.00;;;;;;5071462;28;20664;-70
2022/08/22 01:55:52;;;;;;;2.63;0.83;;;23.70;85.10;;;;;;5071294;28;20707;-70
2022/08/22 01:58:28;;;;;;;1.67;1.00;;;23.80;89.20;;;;;;5079869;28;20206;-71
2022/08/22 02:01:16;;;;;;;2.23;0.90;;;24.00;83.30;;;;;;5086514;28;20591;-71
2022/08/22 02:04:05;;;;;;;0.97;0.50;;;23.80;82.80;;;;;;5077433;28;20261;-71
2022/08/22 02:06:37;;;;;;;0.40;0.40;;;23.80;85.20;;;;;;5091630;28;20217;-69
2022/08/22 02:09:10;;;;;;;2.77;0.43;;;23.70;87.40;;;;;;5095252;28;20187;-72
2022/08/22 02:11:50;;;;;;;2.20;0.60;;;24.20;90.30;;;;;;5075418;28;20187;-71
2022/08/22 02:14:32;;;;;;;2.13;0.70;;;24.20;91.20;;;;;;5066734;28;20183;-71
2022/08/22 02:17:19;;;;;;;1.63;0.60;;;;;;;;;;5075346;28;20210;-71
2022/08/22 02:20:01;;;;;;;2.90;0.60;;;24.20;83.40;;;;;;5035379;28;20618;-71
2022/08/22 02:22:51;;;;;;;2.90;0.70;;;24.30;87.30;;;;;;5095317;28;20546;-71
2022/08/22 02:25:24;;;;;;;1.73;0.67;;;25.00;86.50;;;;;;5075009;28;20230;-73
2022/08/22 02:27:56;;;;;;;1.17;0.40;;;24.80;77.60;;;;;;5057071;28;20195;-70
2022/08/22 02:30:47;;;;;;;4.77;0.40;;;24.80;79.50;;;;;;5092510;28;20190;-70
2022/08/22 02:33:45;;;;;;;3.53;0.50;;;25.30;80.10;;;;;;5078158;28;20180;-71
2022/08/22 02:36:15;;;;;;;0.97;0.40;;;;;;;;;;5075053;28;20595;-71
2022/08/22 02:38:55;;;;;;;0.93;0.50;;;;;;;;;;5056917;28;20274;-71
2022/08/22 02:41:35;;;;;;;1.70;0.50;;;25.80;83.90;;;;;;5074655;28;20687;-70
2022/08/22 02:44:25;;;;;;;0.50;0.40;;;26.00;78.30;;;;;;5075715;28;20184;-71
2022/08/22 02:47:03;;;;;;;0.70;0.40;;;25.60;79.10;;;;;;5039980;28;20203;-70
2022/08/22 02:49:54;;;;;;;2.80;0.50;;;25.20;79.60;;;;;;5058091;28;20598;-70
2022/08/22 02:52:24;;;;;;;0.70;0.50;;;;;;;;;;5091491;28;20195;-71
2022/08/22 02:54:57;;;;;;;3.63;0.43;;;24.80;71.60;;;;;;5083546;28;20233;-70
2022/08/22 02:57:54;;;;;;;1.63;0.50;;;25.10;69.40;;;;;;5094740;28;20648;-71
2022/08/22 03:00:28;;;;;;;1.03;0.40;;;25.20;63.50;;;;;;5094628;28;20688;-72
2022/08/22 03:03:20;;;;;;;2.10;0.50;;;24.70;61.30;;;;;;5094393;28;20595;-73
2022/08/22 03:05:55;;;;;;;0.73;0.50;;;25.10;63.20;;;;;;5094586;28;20266;-70
2022/08/22 03:08:39;;;;;;;1.03;0.43;;;25.20;63.10;;;;;;5092861;28;20181;-69
2022/08/22 03:11:28;;;;;;;1.30;0.47;;;25.20;62.30;;;;;;5094473;28;20178;-70
2022/08/22 03:14:08;;;;;;;5.50;0.67;;;25.40;62.10;;;;;;5094166;28;20171;-70
2022/08/22 03:16:57;;;;;;;5.30;0.50;;;25.20;63.10;;;;;;5094210;28;20731;-69
2022/08/22 03:20:00;;;;;;;1.27;0.60;;;25.20;61.10;;;;;;5093639;28;20168;-71
2022/08/22 03:22:51;;;;;;;0.73;0.30;;;25.20;60.20;;;;;;5083854;28;20732;-70
2022/08/22 03:25:46;;;;;;;1.73;0.70;;;25.30;58.20;;;;;;5074104;28;20237;-70
2022/08/22 03:28:47;;;;;;;1.00;0.40;;;25.60;57.60;;;;;;5073993;28;20263;-70
2022/08/22 03:31:18;;;;;;;0.20;0.20;;;25.90;57.70;;;;;;5073871;28;20178;-70
2022/08/22 03:34:06;;;;;;;3.20;0.40;;;25.60;56.70;;;;;;5073641;28;20234;-71
2022/08/22 03:36:36;;;;;;;0.70;0.40;;;25.50;58.30;;;;;;5055654;28;20199;-71
2022/08/22 03:39:12;;;;;;;3.53;0.40;;;25.20;57.00;;;;;;5078034;28;20183;-72
2022/08/22 03:42:29;;;;;;;4.07;0.40;;;25.50;56.90;;;;;;5073498;28;20183;-72
2022/08/22 03:44:59;;;;;;;0.30;0.30;;;25.00;57.80;;;;;;5048207;28;20324;-72
2022/08/22 03:47:43;;;;;;;0.30;0.30;;;24.90;56.70;;;;;;5093830;28;20236;-71
2022/08/22 03:50:41;;;;;;;0.60;0.40;;;25.10;57.10;;;;;;5093800;28;20175;-69
2022/08/22 03:53:38;;;;;;;3.90;0.40;;;25.60;57.30;;;;;;5093811;28;20179;-71
2022/08/22 03:56:33;;;;;;;2.73;0.50;;;25.80;57.60;;;;;;5089523;28;20227;-72
2022/08/22 03:59:31;;;;;;;1.93;0.43;;;24.90;55.50;;;;;;5073429;28;20234;-71
2022/08/22 04:02:22;;;;;;;1.10;0.40;;;24.70;56.70;;;;;;5073319;28;20187;-71
2022/08/22 04:05:35;;;;;;;1.43;0.40;;;24.70;58.70;;;;;;5055901;28;20561;-70
2022/08/22 04:08:14;;;;;;;0.70;0.50;;;24.40;59.10;;;;;;5065418;28;20198;-71
2022/08/22 04:11:01;;;;;;;0.50;0.40;;;24.60;61.70;;;;;;5073485;28;20259;-71
2022/08/22 04:14:02;;;;;;;1.27;0.50;;;24.50;59.80;;;;;;5087187;28;20210;-69
2022/08/22 04:17:00;;;;;;;1.83;0.40;;;24.50;61.40;;;;;;5093174;28;20571;-71
2022/08/22 04:19:39;;;;;;;0.50;0.47;;;24.50;60.70;;;;;;5092630;28;20171;-71
2022/08/22 04:22:10;;;;;;;1.47;0.40;;;24.40;62.60;;;;;;5088591;28;20191;-72
2022/08/22 04:24:56;;;;;;;1.70;0.53;;;24.40;62.40;;;;;;5072553;28;20176;-73
2022/08/22 04:27:48;;;;;;;2.13;0.50;;;24.30;60.70;;;;;;5086692;28;20644;-70
2022/08/22 04:30:30;;;;;;;1.50;0.30;;;24.30;63.10;;;;;;5092884;28;20176;-73
2022/08/22 04:33:21;;;;;;;0.50;0.40;;;23.80;69.40;;;;;;5092937;28;20257;-72
2022/08/22 04:35:55;;;;;;;0.30;0.30;;;24.00;63.60;;;;;;5074451;28;20230;-70
2022/08/22 04:38:38;;;;;;;0.43;0.30;;;23.90;62.00;;;;;;5069512;28;20213;-71
2022/08/22 04:41:47;;;;;;;1.10;0.40;;;23.80;62.00;;;;;;5086471;28;20239;-70
2022/08/22 04:44:22;;;;;;;1.07;0.40;;;;;;;;;;5038597;28;20240;-72
2022/08/22 04:46:59;;;;;;;2.73;0.53;;;23.20;69.30;;;;;;5092215;28;20178;-71
2022/08/22 04:49:37;;;;;;;0.50;0.40;;;23.10;64.10;;;;;;5092050;28;20171;-71
2022/08/22 04:52:39;;;;;;;1.87;0.60;;;23.10;61.80;;;;;;5072255;28;20289;-71
2022/08/22 04:55:24;;;;;;;2.40;0.40;;;23.00;63.70;;;;;;5071863;28;20215;-73
2022/08/22 04:57:58;;;;;;;0.73;0.40;;;;;;;;;;5071910;28;20207;-72
2022/08/22 05:00:32;;;;;;;0.77;0.50;;;22.60;64.30;;;;;;5059432;28;20274;-71
2022/08/22 05:03:03;;;;;;;1.50;0.30;;;22.80;68.90;;;;;;5092207;28;20183;-72
2022/08/22 05:05:43;;;;;;;2.83;0.60;;;;;;;;;;5082312;28;20269;-74
2022/08/22 05:08:14;;;;;;;0.30;0.30;;;;;;;;;;5091971;28;20183;-72
2022/08/22 05:10:48;;;;;;;2.70;0.60;;;;;;;;;;5081620;28;20195;-73
2022/08/22 05:13:19;;;;;;;0.83;0.40;;;;;;;;;;5071798;28;20648;-72
2022/08/22 05:15:53;;;;;;;0.50;0.40;;;22.10;75.20;;;;;;5082404;28;20213;-73
2022/08/22 05:18:25;;;;;;;0.70;0.50;;;;;;;;;;5079342;28;20254;-72
2022/08/22 05:20:55;;;;;;;9.40;4.60;;;;;;;;;;5074558;28;20188;-71
2022/08/22 05:23:31;;;;;;;1.70;1.00;;;;;;;;;;5053745;28;20194;-71
2022/08/22 05:26:03;;;;;;;1.63;0.50;;;;;;;;;;5079829;28;20644;-71
2022/08/22 05:28:40;;;;;;;1.03;0.67;;;;;;;;;;5073944;28;20248;-71
2022/08/22 05:31:36;;;;;;;3.27;0.40;;;21.90;73.00;;;;;;5091724;28;20179;-72
2022/08/22 05:34:18;;;;;;;5.50;0.50;;;21.80;61.50;;;;;;5087055;28;20243;-72
2022/08/22 05:37:09;;;;;;;0.63;0.30;;;21.60;61.50;;;;;;5071364;28;20694;-72
2022/08/22 05:39:40;;;;;;;2.47;0.50;;;21.50;62.20;;;;;;5071514;28;20219;-71
2022/08/22 05:42:19;;;;;;;0.50;0.50;;;21.50;64.40;;;;;;5071060;28;20250;-73
2022/08/22 05:44:47;;;;;;;1.17;0.60;;;21.50;66.30;;;;;;5085428;28;20769;-73
2022/08/22 05:47:15;;;;;;;0.40;0.40;;;21.70;66.00;;;;;;5071418;28;20248;-71
2022/08/22 05:50:00;;;;;;;0.80;0.40;;;21.40;65.00;;;;;;5071384;28;20174;-71
2022/08/22 05:53:07;;;;;;;0.60;0.40;;;21.20;64.80;;;;;;5081006;28;20194;-72
2022/08/22 05:55:51;;;;;;;1.23;0.40;;;21.10;66.50;;;;;;5080486;28;20207;-72
2022/08/22 05:58:34;;;;;;;0.40;0.40;;;21.00;67.70;;;;;;5071181;28;20176;-71
2022/08/22 06:01:37;;;;;;;1.57;0.40;;;21.00;66.60;;;;;;5053150;28;20712;-71
2022/08/22 06:04:11;;;;;;;0.80;0.80;;;20.70;67.40;;;;;;4990151;28;20260;-71
2022/08/22 06:06:47;;;;;;;2.37;0.63;;;20.60;67.30;;;;;;5044806;28;20243;-71
2022/08/22 06:09:26;;;;;;;2.00;0.70;;;20.50;70.10;;;;;;5071112;28;20177;-70
2022/08/22 06:12:04;;;;;;;2.47;0.60;;;20.50;70.80;;;;;;5071039;28;20238;-73
2022/08/22 06:14:53;;;;;;;0.80;0.57;;;20.40;73.50;;;;;;5079778;28;20186;-72
2022/08/22 06:17:26;;;;;;;0.63;0.40;;;20.30;67.50;;;;;;5090757;28;20187;-71
2022/08/22 06:19:54;;;;;;;2.37;0.47;;;20.10;68.20;;;;;;5073040;28;20199;-71
2022/08/22 06:22:30;;;;;;;2.67;0.60;;;20.00;69.60;;;;;;5090690;28;20272;-69
2022/08/22 06:25:11;;;;;;;1.50;0.57;;;20.00;71.20;;;;;;5089297;28;20227;-71
2022/08/22 06:27:40;;;;;;;0.50;0.50;;;20.00;73.20;;;;;;5070894;28;20179;-69
2022/08/22 06:30:12;;;;;;;0.77;0.53;;;19.90;73.90;;;;;;5070980;28;20814;-71
2022/08/22 06:32:47;;;;;;;3.20;0.60;;;19.90;76.80;;;;;;5075621;28;20188;-70
2022/08/22 06:35:27;;;;;;;1.20;0.50;;;19.80;79.40;;;;;;5090828;28;20266;-69
2022/08/22 06:38:00;;;;;;;1.17;0.50;;;19.70;79.10;;;;;;5090985;28;20182;-71
2022/08/22 06:40:28;;;;;;;1.17;0.60;;;19.70;79.90;;;;;;5076830;28;20641;-69
2022/08/22 06:43:02;;;;;;;2.30;0.50;;;19.60;81.10;;;;;;5077577;28;20592;-71
2022/08/22 06:45:32;;;;;;;1.03;0.50;;;19.50;81.50;;;;;;5091136;28;20267;-70
2022/08/22 06:48:05;;;;;;;1.27;0.50;;;19.60;82.70;;;;;;5090873;28;20179;-70
2022/08/22 06:50:39;;;;;;;0.97;0.47;;;19.50;84.70;;;;;;5090809;28;20214;-67
2022/08/22 06:53:18;;;;;;;0.40;0.40;;;19.50;85.00;;;;;;5086216;28;20270;-69
2022/08/22 06:55:53;;;;;;;5.93;0.53;;;19.40;85.60;;;;;;5093822;28;20210;-73
2022/08/22 06:58:32;;;;;;;0.43;0.43;;;19.20;88.70;;;;;;5094584;28;20232;-72
2022/08/22 07:01:08;;;;;;;0.33;0.30;;;19.20;91.00;;;;;;5087641;28;20187;-70
2022/08/22 07:03:59;;;;;;;0.80;0.63;;;19.10;91.90;;;;;;5086886;28;20179;-71
2022/08/22 07:06:35;;;;;;;3.03;0.40;;;18.90;93.20;;;;;;5074173;28;20753;-69
2022/08/22 07:09:05;;;;;;;2.77;0.83;;;18.80;92.60;;;;;;5074264;28;20229;-72
2022/08/22 07:11:42;;;;;;;1.57;0.60;;;18.60;94.20;;;;;;5086577;28;20201;-70
2022/08/22 07:14:16;;;;;;;0.80;0.73;;;18.60;96.10;;;;;;5086037;28;20179;-70
2022/08/22 07:17:00;;;;;;;2.47;0.57;;;18.40;95.10;;;;;;5074126;28;20218;-72
2022/08/22 07:19:33;;;;;;;2.53;0.60;;;18.20;97.30;;;;;;5094269;28;20175;-71
2022/08/22 07:22:21;;;;;;;0.73;0.63;;;18.20;99.10;;;;;;5094216;28;20636;-71
2022/08/22 07:24:54;;;;;;;0.80;0.50;;;18.10;99.90;;;;;;5074710;28;20194;-69
2022/08/22 07:27:54;;;;;;;1.27;0.57;;;18.00;99.90;;;;;;5085033;28;20273;-71
2022/08/22 07:30:25;;;;;;;0.37;0.37;;;17.90;99.90;;;;;;5092874;28;21561;-71
2022/08/22 07:33:05;;;;;;;0.80;0.60;;;17.90;99.90;;;;;;5094989;28;20540;-72
2022/08/22 07:35:41;;;;;;;1.57;0.70;;;17.70;99.90;;;;;;5095043;28;20282;-71
2022/08/22 07:38:42;;;;;;;0.50;0.40;;;17.60;99.90;;;;;;5095038;28;20202;-69
2022/08/22 07:41:18;;;;;;;2.30;0.60;;;17.50;99.90;;;;;;5059841;28;20253;-70
2022/08/22 07:44:04;;;;;;;1.33;0.90;;;17.50;99.90;;;;;;5074936;28;20175;-70
2022/08/22 07:46:54;;;;;;;0.70;0.70;;;17.40;99.90;;;;;;5094673;28;20182;-71
2022/08/22 07:49:45;;;;;;;2.10;0.60;;;17.30;99.90;;;;;;5095186;28;20568;-72
2022/08/22 07:52:14;;;;;;;0.73;0.70;;;17.20;99.90;;;;;;5079882;28;20193;-70
2022/08/22 07:54:56;;;;;;;2.37;0.70;;;17.10;99.90;;;;;;5094268;28;20211;-71
2022/08/22 07:57:53;;;;;;;0.80;0.70;;;17.10;99.90;;;;;;5094509;28;20187;-71
2022/08/22 08:00:22;;;;;;;0.80;0.63;;;17.00;99.90;;;;;;5095173;28;20186;-70
2022/08/22 08:02:55;;;;;;;2.20;0.73;;;16.90;99.90;;;;;;5085599;28;20226;-70
2022/08/22 08:05:29;;;;;;;3.60;0.70;;;16.90;99.90;;;;;;5086759;28;20245;-71
2022/08/22 08:08:01;;;;;;;1.40;1.07;;;16.90;99.90;;;;;;5074841;28;20167;-70
2022/08/22 08:10:34;;;;;;;2.90;1.10;;;16.80;99.90;;;;;;5039984;28;20190;-70
2022/08/22 08:13:08;;;;;;;1.43;1.33;;;16.70;99.90;;;;;;5074285;28;20191;-71
2022/08/22 08:15:38;;;;;;;2.57;1.40;;;16.80;99.90;;;;;;5081811;28;20197;-70
2022/08/22 08:18:11;;;;;;;3.57;1.67;;;16.80;99.90;;;;;;5094421;28;20187;-71
2022/08/22 08:20:40;;;;;;;1.07;1.00;;;16.70;99.90;;;;;;5094522;28;20178;-71
2022/08/22 08:23:18;;;;;;;1.07;0.93;;;16.70;99.90;;;;;;5094379;28;20184;-71
2022/08/22 08:26:10;;;;;;;1.90;0.90;;;16.60;99.90;;;;;;5094039;28;20187;-71
2022/08/22 08:28:51;;;;;;;1.37;0.60;;;16.70;99.90;;;;;;5094256;28;20186;-71
2022/08/22 08:31:31;;;;;;;1.13;0.80;;;16.80;99.90;;;;;;5094304;28;20596;-70
2022/08/22 08:34:25;;;;;;;0.70;0.50;;;16.80;99.90;;;;;;5075890;28;20226;-70
2022/08/22 08:37:05;;;;;;;0.50;0.50;;;16.80;99.90;;;;;;5091040;28;20218;-71
2022/08/22 08:39:38;;;;;;;1.20;0.60;;;16.80;99.90;;;;;;5094411;28;20197;-71
2022/08/22 08:42:15;;;;;;;1.10;0.60;;;16.80;99.90;;;;;;5093982;28;20190;-70
2022/08/22 08:45:16;;;;;;;0.83;0.60;;;16.70;99.90;;;;;;5094102;28;20186;-71
2022/08/22 08:47:56;;;;;;;0.50;0.50;;;16.60;99.90;;;;;;5093998;28;20181;-71
2022/08/22 08:50:51;;;;;;;2.90;0.70;;;16.60;99.90;;;;;;5094085;28;20174;-72
2022/08/22 08:54:08;;;;;;;1.17;0.50;;;16.60;99.90;;;;;;5094163;28;20254;-71
2022/08/22 08:56:53;;;;;;;0.83;0.50;;;16.60;99.90;;;;;;5075138;28;20228;-72
2022/08/22 08:59:30;;;;;;;0.53;0.50;;;16.70;99.90;;;;;;5094266;28;20280;-72
2022/08/22 09:02:23;;;;;;;0.60;0.60;;;16.60;99.90;;;;;;5094463;28;20239;-70
2022/08/22 09:05:03;;;;;;;0.40;0.40;;;16.50;99.90;;;;;;5094437;28;20178;-71
2022/08/22 09:07:42;;;;;;;0.70;0.60;;;16.40;99.90;;;;;;5094207;28;20174;-71
2022/08/22 09:10:51;;;;;;;1.10;0.70;;;16.20;99.90;;;;;;5093807;28;20223;-71
2022/08/22 09:13:32;;;;;;;1.40;0.60;;;16.20;99.90;;;;;;5047007;28;20194;-70
2022/08/22 09:16:08;;;;;;;0.90;0.70;;;16.10;99.90;;;;;;5093890;28;20209;-70
2022/08/22 09:19:01;;;;;;;0.60;0.60;;;16.00;99.90;;;;;;5093886;28;20198;-70
2022/08/22 09:21:58;;;;;;;1.63;0.60;;;15.90;99.90;;;;;;5094464;28;20326;-71
2022/08/22 09:24:34;;;;;;;1.70;0.73;;;15.90;99.90;;;;;;5075543;28;20178;-70
2022/08/22 09:27:20;;;;;;;1.30;0.67;;;15.70;99.90;;;;;;5094234;28;20179;-71
2022/08/22 09:30:08;;;;;;;0.70;0.70;;;15.60;99.90;;;;;;5093640;28;20179;-70
2022/08/22 09:32:42;;;;;;;0.83;0.60;;;15.50;99.90;;;;;;5093573;28;20172;-71
2022/08/22 09:35:18;;;;;;;3.43;0.70;;;15.40;99.90;;;;;;5097012;28;20237;-72
2022/08/22 09:38:12;;;;;;;1.00;0.67;;;15.30;99.90;;;;;;5095367;28;20685;-72
2022/08/22 09:40:48;;;;;;;0.73;0.60;;;15.20;99.90;;;;;;5098223;28;20186;-70
2022/08/22 09:43:23;;;;;;;1.80;0.70;;;15.00;99.90;;;;;;5093400;28;20187;-70
2022/08/22 09:46:12;;;;;;;16.33;2.10;;;14.90;99.90;;;;;;5093652;28;20167;-71
2022/08/22 09:49:04;;;;;;;2.43;1.20;;;14.90;99.90;;;;;;5072450;28;20185;-71
2022/08/22 09:51:50;;;;;;;1.10;0.83;;;14.80;99.90;;;;;;5092940;28;20202;-71
2022/08/22 09:54:37;;;;;;;1.13;0.70;;;14.70;99.90;;;;;;5093975;28;20174;-71
2022/08/22 09:57:30;;;;;;;3.00;1.00;;;14.60;99.90;;;;;;5093338;28;20202;-70
2022/08/22 10:00:18;;;;;;;3.93;1.00;;;14.30;99.90;;;;;;5093646;28;20270;-71
2022/08/22 10:03:13;;;;;;;5.90;1.00;;;14.20;99.90;;;;;;5093242;28;20182;-71
2022/08/22 10:06:07;;;;;;;1.10;0.93;;;14.10;99.90;;;;;;5093354;28;20171;-71
2022/08/22 10:09:03;;;;;;;2.60;1.10;;;14.10;99.90;;;;;;5092071;28;20198;-70
2022/08/22 10:12:00;;;;;;;2.93;1.10;;;13.90;99.90;;;;;;5093104;28;20663;-70
2022/08/22 10:14:43;;;;;;;4.67;1.40;;;13.80;99.90;;;;;;5092874;28;20207;-71
2022/08/22 10:17:45;;;;;;;2.13;1.60;;;13.70;99.90;;;;;;5093250;28;20594;-72
2022/08/22 10:20:34;;;;;;;4.37;2.17;;;13.50;99.90;;;;;;4991697;28;20190;-72
2022/08/22 10:23:08;;;;;;;5.17;2.20;;;13.50;99.90;;;;;;5069632;28;20230;-71
2022/08/22 10:26:02;;;;;;;3.03;2.07;;;13.30;99.90;;;;;;5074905;28;20190;-71
2022/08/22 10:28:51;;;;;;;5.03;2.23;;;13.20;99.90;;;;;;5094097;28;20193;-72
2022/08/22 10:31:44;;;;;;;3.53;1.80;;;13.10;99.90;;;;;;5097030;28;20181;-71
2022/08/22 10:34:44;;;;;;;5.50;1.90;;;13.20;99.90;;;;;;5088266;28;20221;-73
2022/08/22 10:37:26;;;;;;;4.90;2.20;;;13.10;99.90;;;;;;5058612;28;20244;-70
2022/08/22 10:40:36;;;;;;;9.30;2.23;;;12.90;99.90;;;;;;5076344;28;20256;-71
2022/08/22 10:43:09;;;;;;;3.80;2.27;;;12.90;99.90;;;;;;5087124;28;20186;-73
2022/08/22 10:45:46;;;;;;;5.50;2.83;;;12.80;99.90;;;;;;5076099;28;20213;-72
2022/08/22 10:48:45;;;;;;;8.10;2.87;;;12.70;99.90;;;;;;5077153;28;20256;-71
2022/08/22 10:51:53;;;;;;;5.00;2.30;;;12.70;99.90;;;;;;5096902;28;20177;-70
2022/08/22 10:54:39;;;;;;;5.97;2.50;;;12.70;99.90;;;;;;5076827;28;20190;-71
2022/08/22 10:57:35;;;;;;;4.77;2.67;;;12.70;99.90;;;;;;5067923;28;20196;-71
2022/08/22 11:00:33;;;;;;;11.83;3.40;;;12.70;99.90;;;;;;5077659;28;20264;-72
2022/08/22 11:03:09;;;;;;;10.43;2.77;;;12.70;99.90;;;;;;5049965;28;20229;-72
2022/08/22 11:05:42;;;;;;;8.73;2.50;;;12.80;99.90;;;;;;5057947;28;20264;-71
2022/08/22 11:08:43;;;;;;;6.63;2.73;;;12.90;99.90;;;;;;5076033;28;20660;-71
2022/08/22 11:11:37;;;;;;;4.10;2.43;;;12.90;99.90;;;;;;5075886;28;20185;-71
2022/08/22 11:14:23;;;;;;;3.00;2.10;;;12.90;99.90;;;;;;5075944;28;20180;-73
2022/08/22 11:17:14;;;;;;;3.60;2.07;;;12.90;99.90;;;;;;5075685;28;20301;-70
2022/08/22 11:19:47;;;;;;;5.30;2.50;;;12.90;99.90;;;;;;5091317;28;20263;-71
2022/08/22 11:22:15;;;;;;;4.50;2.13;;;12.90;99.90;;;;;;5077239;28;20188;-70
2022/08/22 11:25:02;;;;;;;7.73;2.40;;;12.90;99.90;;;;;;5095721;28;20183;-71
2022/08/22 11:27:38;;;;;;;5.73;2.37;;;12.90;99.90;;;;;;5095900;28;20532;-72
2022/08/22 11:30:14;;;;;;;5.20;2.57;;;13.00;99.90;;;;;;5091647;28;20183;-71
2022/08/22 11:33:04;;;;;;;6.73;2.17;;;13.00;99.90;;;;;;5095449;28;20181;-71
2022/08/22 11:35:57;;;;;;;5.53;2.60;;;13.00;99.90;;;;;;5095835;28;20269;-71
2022/08/22 11:38:43;;;;;;;8.43;2.80;;;13.00;99.90;;;;;;5095034;28;20226;-71
2022/08/22 11:41:36;;;;;;;5.03;2.17;;;12.90;99.90;;;;;;5074575;28;20644;-71
2022/08/22 11:44:30;;;;;;;11.10;2.50;;;12.70;99.90;;;;;;5066993;28;20202;-71
2022/08/22 11:47:07;;;;;;;6.40;2.33;;;12.60;99.90;;;;;;5075230;28;20639;-72
2022/08/22 11:49:50;;;;;;;6.57;2.53;;;12.50;99.90;;;;;;5082781;28;20168;-71
2022/08/22 11:52:38;;;;;;;5.57;2.33;;;12.50;99.90;;;;;;5095421;28;20180;-71
2022/08/22 11:55:23;;;;;;;3.53;2.10;;;12.40;99.90;;;;;;5095208;28;20209;-71
2022/08/22 11:58:27;;;;;;;5.07;2.60;;;12.20;99.90;;;;;;5086772;28;20193;-71
2022/08/22 12:00:55;;;;;;;4.67;2.50;;;12.10;99.90;;;;;;5093681;28;20191;-71
2022/08/22 12:03:40;;;;;;;7.73;2.30;;;12.00;99.90;;;;;;5094767;28;20574;-72
2022/08/22 12:06:35;;;;;;;6.33;3.60;;;11.90;99.90;;;;;;5095110;28;20264;-72
2022/08/22 12:09:34;;;;;;;10.87;3.17;;;12.00;99.90;;;;;;5091837;28;20187;-72
2022/08/22 12:12:32;;;;;;;5.43;3.10;;;11.90;99.90;;;;;;5074629;28;20177;-72
2022/08/22 12:15:16;;;;;;;8.13;4.27;;;11.80;99.90;;;;;;5074499;28;20310;-71
2022/08/22 12:18:02;;;;;;;9.90;3.87;;;11.60;99.90;;;;;;5074268;28;20664;-70
2022/08/22 12:20:51;;;;;;;7.70;4.00;;;11.50;99.90;;;;;;5075222;28;20181;-70
2022/08/22 12:23:33;;;;;;;10.53;4.63;;;11.50;99.90;;;;;;5077011;28;20565;-70
2022/08/22 12:26:14;;;;;;;11.27;6.87;;;11.40;99.90;;;;;;5062288;28;20227;-71
2022/08/22 12:29:00;;;;;;;11.77;5.77;;;11.30;99.90;;;;;;5074238;28;20188;-70
2022/08/22 12:31:43;;;;;;;9.37;6.10;;;11.30;99.90;;;;;;5077382;28;20178;-71
2022/08/22 12:34:21;;;;;;;11.40;6.33;;;11.20;99.90;;;;;;5094197;28;20234;-71
2022/08/22 12:36:54;;;;;;;9.97;5.23;;;11.20;99.90;;;;;;5094341;28;20214;-70
2022/08/22 12:39:36;;;;;;;12.73;6.80;;;11.10;99.90;;;;;;5094662;28;20620;-69
2022/08/22 12:42:22;;;;;;;10.33;7.03;;;11.10;99.90;;;;;;5081646;28;20183;-70
2022/08/22 12:45:13;;;;;;;11.30;5.83;;;11.10;99.90;;;;;;5094541;28;20176;-70
2022/08/22 12:48:08;;;;;;;15.33;7.40;;;11.00;99.90;;;;;;5094094;28;20182;-71
2022/08/22 12:51:16;;;;;;;11.67;6.20;;;11.00;99.90;;;;;;5064209;28;20677;-70
2022/08/22 12:53:54;;;;;;;15.23;8.00;;;10.90;99.90;;;;;;5063219;28;20272;-71
2022/08/22 12:56:42;;;;;;;15.20;7.73;;;10.90;99.90;;;;;;5055628;28;20705;-70
2022/08/22 12:59:22;;;;;;;12.10;6.60;;;10.80;99.90;;;;;;5073520;28;20180;-71
2022/08/22 13:01:55;;;;;;;7.77;5.00;;;10.80;99.90;;;;;;5078741;28;20553;-71
2022/08/22 13:04:32;;;;;;;8.67;5.43;;;10.70;99.90;;;;;;5093673;28;20195;-71
2022/08/22 13:07:22;;;;;;;8.83;4.97;;;10.70;99.90;;;;;;5093790;28;20263;-70
2022/08/22 13:10:00;;;;;;;13.77;4.50;;;10.60;99.90;;;;;;5093783;28;20177;-70
2022/08/22 13:12:48;;;;;;;8.33;4.13;;;10.70;99.90;;;;;;5092074;28;20203;-71
2022/08/22 13:15:29;;;;;;;7.17;3.73;;;10.60;99.90;;;;;;5087816;28;20563;-69
2022/08/22 13:18:00;;;;;;;10.87;3.87;;;10.60;99.90;;;;;;5055230;28;20179;-70
2022/08/22 13:20:41;;;;;;;7.80;3.97;;;10.60;99.90;;;;;;5073122;28;20198;-71
2022/08/22 13:23:37;;;;;;;6.07;3.40;;;10.50;99.90;;;;;;5074514;28;20553;-70
2022/08/22 13:26:16;;;;;;;4.03;2.40;;;10.60;99.90;;;;;;5082167;28;20234;-72
2022/08/22 13:28:47;;;;;;;3.23;1.47;;;10.70;99.90;;;;;;5073418;28;20652;-71
2022/08/22 13:31:41;;;;;;;2.30;1.33;;;11.10;99.90;;;;;;5073309;28;20168;-70
2022/08/22 13:34:28;;;;;;;1.63;1.03;;;11.50;99.90;;;;;;5070183;28;20228;-70
2022/08/22 13:37:03;;;;;;;1.03;0.70;;;12.20;99.90;;;;;;5088834;28;20218;-71
2022/08/22 13:39:41;;;;;;;0.80;0.70;;;12.80;99.90;;;;;;5093431;28;20516;-71
2022/08/22 13:42:20;;;;;;;0.70;0.60;;;13.20;99.90;;;;;;5093760;28;20599;-70
2022/08/22 13:44:53;;;;;;;1.17;0.60;;;13.60;99.90;;;;;;5093302;28;20660;-71
2022/08/22 13:47:25;;;;;;;0.60;0.60;;;13.90;99.90;;;;;;5073690;28;20176;-70
2022/08/22 13:50:17;;;;;;;0.97;0.53;;;14.00;99.90;;;;;;5072943;28;20183;-71
2022/08/22 13:52:56;;;;;;;0.60;0.50;;;14.10;99.90;;;;;;5072908;28;20268;-71
2022/08/22 13:55:29;;;;;;;1.27;0.60;;;14.30;99.90;;;;;;5075375;28;20252;-70
2022/08/22 13:58:02;;;;;;;0.73;0.73;;;14.50;99.90;;;;;;5093118;28;20627;-71
2022/08/22 14:00:45;;;;;;;0.57;0.57;;;14.50;99.90;;;;;;5092999;28;20641;-71
2022/08/22 14:03:19;;;;;;;1.67;0.60;;;14.50;99.90;;;;;;5094744;28;20181;-70
2022/08/22 14:05:58;;;;;;;0.77;0.60;;;14.50;99.90;;;;;;5091332;28;20700;-71
2022/08/22 14:08:36;;;;;;;0.50;0.50;;;14.70;99.90;;;;;;5076893;28;20175;-70
2022/08/22 14:11:26;;;;;;;1.50;0.50;;;14.90;99.90;;;;;;5083516;28;20313;-71
2022/08/22 14:14:02;;;;;;;1.80;0.60;;;15.10;99.90;;;;;;5096985;28;20188;-72
2022/08/22 14:16:47;;;;;;;0.40;0.40;;;15.20;99.90;;;;;;5085135;28;20225;-71
2022/08/22 14:19:36;;;;;;;1.20;0.60;;;15.30;99.90;;;;;;5076575;28;20177;-70